Time;durP1;ratioP1;P1;durP2;ratioP2;P2;SDS_P1;SDS_P2;PMS_P1;PMS_P2;Temp;Humidity;BMP_temperature;BMP_pressure;BME280_temperature;BME280_humidity;BME280_pressure;Samples;Min_cycle;Max_cycle;Signal;HPM_P1;HPM_P2
2024/01/25 00:02:03;;;;;;;2.65;0.93;;;;;;;8.81;86.70;102953.00;5056673;27;97749;-26
2024/01/25 00:04:28;;;;;;;9.73;1.02;;;;;;;8.79;86.93;102954.84;5055522;27;96782;-26
2024/01/25 00:06:53;;;;;;;1.25;0.63;;;;;;;8.77;87.17;102948.56;5057363;27;96829;-26
2024/01/25 00:09:18;;;;;;;5.35;0.80;;;;;;;8.80;87.16;102954.81;5056442;27;97376;-26
2024/01/25 00:11:44;;;;;;;3.45;0.70;;;;;;;8.74;87.31;102937.84;5056330;27;98800;-26
2024/01/25 00:14:09;;;;;;;3.05;0.73;;;;;;;8.72;87.57;102937.84;5056550;27;96681;-26
2024/01/25 00:16:34;;;;;;;3.30;0.55;;;;;;;8.72;87.65;102929.75;5056936;27;96761;-26
2024/01/25 00:19:00;;;;;;;2.63;0.88;;;;;;;8.71;87.60;102936.97;5056466;27;97915;-26
2024/01/25 00:21:25;;;;;;;3.47;0.85;;;;;;;8.67;87.92;102945.16;5056396;27;97742;-27
2024/01/25 00:23:50;;;;;;;4.13;1.25;;;;;;;8.61;88.26;102939.91;5056816;27;96621;-27
2024/01/25 00:26:16;;;;;;;4.30;0.82;;;;;;;8.62;88.36;102936.28;5055221;27;96800;-28
2024/01/25 00:28:41;;;;;;;7.63;1.98;;;;;;;8.56;88.29;102920.19;5056330;27;97974;-27
2024/01/25 00:31:06;;;;;;;7.97;1.00;;;;;;;8.61;88.55;102929.97;5056400;27;99142;-27
2024/01/25 00:33:32;;;;;;;1.77;0.68;;;;;;;8.59;88.33;102928.25;5056626;27;96499;-27
2024/01/25 00:35:57;;;;;;;6.85;1.45;;;;;;;8.59;88.51;102936.34;5056653;27;96782;-26
2024/01/25 00:38:23;;;;;;;2.05;0.95;;;;;;;8.52;88.83;102930.16;5055716;27;97471;-27
2024/01/25 00:40:49;;;;;;;4.13;0.80;;;;;;;8.59;88.91;102944.44;5055887;27;97840;-26
2024/01/25 00:43:14;;;;;;;0.70;0.30;;;;;;;8.55;88.94;102940.00;5056392;27;96685;-27
2024/01/25 00:45:40;;;;;;;8.32;1.25;;;;;;;8.56;89.03;102945.41;5056404;27;96784;-28
2024/01/25 00:48:06;;;;;;;3.45;0.73;;;;;;;8.48;89.19;102940.13;5055717;27;99735;-26
2024/01/25 00:50:31;;;;;;;5.57;1.05;;;;;;;8.46;89.52;102942.00;5055970;27;97728;-27
2024/01/25 00:52:57;;;;;;;5.78;1.02;;;;;;;8.40;89.50;102938.50;5056655;27;96468;-27
2024/01/25 00:55:23;;;;;;;3.20;0.52;;;;;;;8.43;89.69;102947.41;5056400;27;96849;-26
2024/01/25 00:57:48;;;;;;;15.48;1.15;;;;;;;8.39;89.93;102951.09;5054891;27;99292;-27
2024/01/25 01:00:14;;;;;;;7.55;0.90;;;;;;;8.38;89.83;102940.31;5055872;27;98172;-26
2024/01/25 01:02:43;;;;;;;0.38;0.32;;;;;;;8.42;89.94;102948.34;5054084;27;96685;-27
2024/01/25 01:05:09;;;;;;;1.65;0.82;;;;;;;8.39;89.62;102947.47;5054522;27;96917;-27
2024/01/25 01:07:34;;;;;;;7.82;1.13;;;;;;;8.36;89.80;102947.53;5054055;27;101936;-26
2024/01/25 01:10:00;;;;;;;2.63;0.60;;;;;;;8.37;90.15;102965.53;5055530;27;98329;-27
2024/01/25 01:12:25;;;;;;;3.67;0.75;;;;;;;8.35;90.12;102965.56;5055809;27;96480;-27
2024/01/25 01:14:50;;;;;;;0.82;0.50;;;;;;;8.33;90.25;102966.50;5056097;27;96696;-27
2024/01/25 01:17:18;;;;;;;5.35;0.55;;;;;;;8.34;89.97;102979.97;5055279;27;99208;-26
2024/01/25 01:19:43;;;;;;;3.55;0.73;;;;;;;8.28;90.21;102967.47;5055753;27;99230;-27
2024/01/25 01:22:08;;;;;;;2.58;0.32;;;;;;;8.32;90.53;102984.53;5055535;27;96460;-26
2024/01/25 01:24:34;;;;;;;2.60;0.35;;;;;;;8.35;90.24;102994.38;5055806;27;96668;-27
2024/01/25 01:26:59;;;;;;;1.60;0.35;;;;;;;8.35;90.38;102995.25;5054625;27;99066;-27
2024/01/25 01:29:24;;;;;;;2.72;0.85;;;;;;;8.23;90.42;102984.69;5054987;27;99082;-27
2024/01/25 01:31:50;;;;;;;6.90;0.93;;;;;;;8.28;90.63;102988.19;5054089;27;96632;-27
2024/01/25 01:34:17;;;;;;;0.63;0.25;;;;;;;8.21;90.80;102982.00;5055846;27;96521;-26
2024/01/25 01:36:43;;;;;;;0.85;0.55;;;;;;;8.17;90.97;102980.25;5054717;27;98461;-27
2024/01/25 01:39:08;;;;;;;0.77;0.45;;;;;;;8.21;91.09;103002.72;5053476;27;100907;-27
2024/01/25 01:41:34;;;;;;;5.45;1.83;;;;;;;8.21;91.42;103008.09;5055535;27;96559;-27
2024/01/25 01:43:59;;;;;;;1.02;0.63;;;;;;;8.17;91.36;103007.25;5055769;27;96798;-27
2024/01/25 01:46:31;;;;;;;2.25;0.68;;;;;;;8.21;91.24;103017.09;5054945;27;99290;-26
2024/01/25 01:48:56;;;;;;;8.48;1.33;;;;;;;8.16;91.37;103020.78;5053488;27;99296;-27
2024/01/25 01:51:21;;;;;;;2.22;0.60;;;;;;;8.17;91.57;103022.56;5054565;27;96589;-27
2024/01/25 01:53:47;;;;;;;5.20;0.95;;;;;;;8.13;91.56;103018.13;5055184;27;96751;-27
2024/01/25 01:56:14;;;;;;;4.38;1.23;;;;;;;8.11;91.88;103001.09;5054887;27;97422;-27
2024/01/25 01:58:40;;;;;;;1.90;0.63;;;;;;;8.09;92.16;103015.47;5053349;27;99328;-27
2024/01/25 02:01:05;;;;;;;1.33;0.65;;;;;;;8.08;91.79;103019.13;5055217;27;96488;-27
2024/01/25 02:03:30;;;;;;;2.05;0.52;;;;;;;8.08;91.90;103018.22;5055170;27;96813;-27
2024/01/25 02:06:02;;;;;;;9.32;0.73;;;;;;;8.09;91.98;103018.19;5054887;27;97514;-27
2024/01/25 02:08:27;;;;;;;4.47;1.37;;;;;;;8.09;92.20;103022.69;5055036;27;98948;-27
2024/01/25 02:10:53;;;;;;;3.22;0.52;;;;;;;8.07;91.99;103028.09;5053650;27;96609;-27
2024/01/25 02:13:18;;;;;;;7.25;1.25;;;;;;;8.03;92.20;103022.78;5055170;27;96823;-26
2024/01/25 02:15:43;;;;;;;1.55;0.63;;;;;;;8.01;92.28;103022.81;5054381;27;97446;-28
2024/01/25 02:18:10;;;;;;;3.63;1.08;;;;;;;8.00;92.29;103020.13;5054802;27;97284;-28
2024/01/25 02:20:35;;;;;;;3.35;0.98;;;;;;;7.98;92.22;103012.06;5053660;27;96712;-26
2024/01/25 02:23:00;;;;;;;4.82;1.08;;;;;;;7.99;92.11;103019.25;5054686;27;96879;-26
2024/01/25 02:25:26;;;;;;;6.35;0.90;;;;;;;7.94;92.13;103029.22;5054626;27;97887;-27
2024/01/25 02:27:51;;;;;;;5.10;0.88;;;;;;;7.89;92.46;103025.72;5054511;27;97457;-27
2024/01/25 02:30:16;;;;;;;6.72;0.80;;;;;;;7.95;92.24;103022.03;5054752;27;96568;-26
2024/01/25 02:32:43;;;;;;;3.58;0.65;;;;;;;7.92;92.30;103024.78;5054957;27;96874;-27
2024/01/25 02:35:09;;;;;;;10.90;1.15;;;;;;;7.83;92.34;103018.59;5054255;27;99316;-27
2024/01/25 02:37:34;;;;;;;6.07;1.85;;;;;;;7.87;92.39;103032.94;5054229;27;97505;-26
2024/01/25 02:39:59;;;;;;;7.18;1.83;;;;;;;7.78;92.40;103012.38;5054016;27;96488;-27
2024/01/25 02:42:25;;;;;;;2.33;0.75;;;;;;;7.78;92.71;103024.97;5054854;27;96755;-27
2024/01/25 02:44:50;;;;;;;3.90;0.90;;;;;;;7.75;92.91;103025.91;5054363;27;98103;-27
2024/01/25 02:47:15;;;;;;;2.28;0.50;;;;;;;7.78;93.24;103011.50;5054500;27;97297;-26
2024/01/25 02:49:41;;;;;;;0.80;0.47;;;;;;;7.81;92.91;103015.00;5055901;27;96535;-28
2024/01/25 02:52:06;;;;;;;10.85;0.88;;;;;;;7.81;92.91;103025.81;5058160;27;96845;-27
2024/01/25 02:54:36;;;;;;;6.47;0.45;;;;;;;7.74;93.45;103020.53;5057725;27;98328;-26
2024/01/25 02:57:01;;;;;;;0.10;0.10;;;;;;;7.73;93.66;103022.34;5055874;27;100844;-27
2024/01/25 02:59:27;;;;;;;1.80;0.35;;;;;;;7.71;93.58;103034.06;5058171;27;96689;-27
2024/01/25 03:01:54;;;;;;;2.40;0.57;;;;;;;7.70;93.55;103037.66;5058092;27;96870;-27
2024/01/25 03:04:19;;;;;;;9.82;1.42;;;;;;;7.68;93.70;103044.91;5056806;27;99494;-27
2024/01/25 03:06:44;;;;;;;0.85;0.45;;;;;;;7.69;93.78;103041.28;5057635;27;97918;-27
2024/01/25 03:09:10;;;;;;;4.63;1.15;;;;;;;7.61;93.79;103018.03;5057867;27;96630;-27
2024/01/25 03:11:35;;;;;;;0.43;0.43;;;;;;;7.64;93.48;103023.34;5057603;27;96752;-26
2024/01/25 03:14:00;;;;;;;8.05;0.82;;;;;;;7.63;93.73;103026.97;5057402;27;97914;-27
2024/01/25 03:16:26;;;;;;;0.63;0.50;;;;;;;7.58;93.98;103028.84;5057199;27;99171;-26
2024/01/25 03:18:52;;;;;;;9.07;0.95;;;;;;;7.59;93.97;103027.94;5057795;27;96679;-27
2024/01/25 03:21:17;;;;;;;2.00;1.00;;;;;;;7.54;93.97;103019.00;5056429;27;96907;-28
2024/01/25 03:23:43;;;;;;;0.38;0.28;;;;;;;7.50;93.90;103019.97;5057488;27;97407;-26
2024/01/25 03:26:08;;;;;;;0.95;0.25;;;;;;;7.55;93.93;103020.78;5057393;27;97767;-27
2024/01/25 03:28:38;;;;;;;0.50;0.22;;;;;;;7.55;93.73;103033.38;5057133;27;96553;-27
2024/01/25 03:31:04;;;;;;;2.45;0.52;;;;;;;7.51;93.90;103021.75;5057240;27;96801;-27
2024/01/25 03:33:29;;;;;;;0.63;0.30;;;;;;;7.53;93.87;103019.03;5056949;27;99520;-27
2024/01/25 03:35:54;;;;;;;1.73;0.50;;;;;;;7.50;93.79;103019.97;5056850;27;97778;-26
2024/01/25 03:38:20;;;;;;;1.23;0.22;;;;;;;7.45;93.86;103019.13;5057465;27;96469;-27
2024/01/25 03:40:46;;;;;;;2.08;0.55;;;;;;;7.45;94.21;103027.22;5057396;27;96758;-27
2024/01/25 03:43:11;;;;;;;0.50;0.38;;;;;;;7.41;94.00;103029.09;5055584;27;100942;-26
2024/01/25 03:45:37;;;;;;;6.95;1.00;;;;;;;7.43;94.11;103026.34;5057320;27;97414;-27
2024/01/25 03:48:02;;;;;;;1.75;0.52;;;;;;;7.41;94.36;103020.09;5057077;27;96924;-26
2024/01/25 03:50:27;;;;;;;3.00;0.52;;;;;;;7.38;94.67;103014.75;5057166;27;96750;-28
2024/01/25 03:52:53;;;;;;;0.95;0.65;;;;;;;7.40;94.33;103018.31;5056348;27;97433;-28
2024/01/25 03:55:18;;;;;;;5.18;1.17;;;;;;;7.38;94.57;103030.91;5056798;27;97455;-26
2024/01/25 03:57:44;;;;;;;1.38;0.35;;;;;;;7.37;94.25;103038.13;5056401;27;96781;-26
2024/01/25 04:00:11;;;;;;;1.52;0.60;;;;;;;7.33;94.45;103033.66;5056918;27;96778;-26
2024/01/25 04:02:36;;;;;;;8.32;0.77;;;;;;;7.26;94.22;103029.28;5056562;27;98970;-27
2024/01/25 04:05:02;;;;;;;2.50;0.88;;;;;;;7.22;94.49;103025.75;5056370;27;96720;-27
2024/01/25 04:07:27;;;;;;;1.48;0.88;;;;;;;7.20;94.42;103024.84;5056717;27;96503;-27
2024/01/25 04:09:53;;;;;;;1.77;0.25;;;;;;;7.14;94.36;103022.22;5057173;27;96816;-27
2024/01/25 04:12:18;;;;;;;1.05;0.17;;;;;;;7.16;94.42;103038.38;5056666;27;97572;-27
2024/01/25 04:14:44;;;;;;;1.38;0.77;;;;;;;7.10;94.60;103036.63;5056672;27;97781;-27
2024/01/25 04:17:09;;;;;;;12.48;1.30;;;;;;;7.07;94.65;103035.81;5056289;27;96500;-26
2024/01/25 04:19:36;;;;;;;1.35;0.70;;;;;;;7.05;94.72;103027.72;5056597;27;96913;-27
2024/01/25 04:22:01;;;;;;;2.15;0.52;;;;;;;6.97;94.58;103024.25;5056774;27;97408;-26
2024/01/25 04:24:26;;;;;;;1.73;0.80;;;;;;;6.95;94.54;103031.44;5056094;27;99388;-27
2024/01/25 04:26:52;;;;;;;1.27;0.55;;;;;;;6.88;94.57;103029.72;5056726;27;96507;-26
2024/01/25 04:29:17;;;;;;;0.32;0.22;;;;;;;6.86;94.85;103027.03;5056407;27;96790;-28
2024/01/25 04:31:44;;;;;;;0.57;0.45;;;;;;;6.85;94.99;103029.75;5056202;27;97926;-27
2024/01/25 04:34:10;;;;;;;0.63;0.55;;;;;;;6.77;94.85;103036.13;5054945;27;100937;-27
2024/01/25 04:36:36;;;;;;;3.15;1.10;;;;;;;6.68;94.84;103033.53;5056355;27;96614;-26
2024/01/25 04:39:01;;;;;;;1.80;0.47;;;;;;;6.59;94.89;103025.53;5056251;27;96788;-27
2024/01/25 04:41:26;;;;;;;0.63;0.32;;;;;;;6.58;94.73;103037.22;5055326;27;98744;-27
2024/01/25 04:43:52;;;;;;;0.20;0.17;;;;;;;6.53;94.39;103028.28;5055691;27;99027;-26
2024/01/25 04:46:17;;;;;;;1.30;0.50;;;;;;;6.46;94.39;103011.31;5056289;27;96515;-26
2024/01/25 04:48:42;;;;;;;1.15;0.70;;;;;;;6.41;94.70;103009.53;5056156;27;96914;-28
2024/01/25 04:51:08;;;;;;;2.00;0.85;;;;;;;6.37;94.53;103008.69;5056084;27;97856;-27
2024/01/25 04:53:33;;;;;;;10.85;0.65;;;;;;;6.33;94.92;103010.50;5055651;27;99160;-27
2024/01/25 04:55:59;;;;;;;3.55;1.10;;;;;;;6.38;95.06;103034.69;5055949;27;96833;-26
2024/01/25 04:58:25;;;;;;;8.70;0.90;;;;;;;6.31;95.30;103022.19;5055997;27;96882;-27
2024/01/25 05:00:50;;;;;;;1.40;0.85;;;;;;;6.31;95.45;103031.16;5055668;27;99224;-27
2024/01/25 05:03:16;;;;;;;12.90;0.80;;;;;;;6.31;95.51;103028.47;5055520;27;99139;-26
2024/01/25 05:05:41;;;;;;;2.10;1.10;;;;;;;6.31;95.27;103036.53;5055183;27;96618;-26
2024/01/25 05:08:06;;;;;;;0.57;0.43;;;;;;;6.26;95.71;103043.75;5055988;27;96815;-26
2024/01/25 05:10:32;;;;;;;2.85;0.95;;;;;;;6.23;95.75;103041.09;5055308;27;99200;-27
2024/01/25 05:12:57;;;;;;;1.73;0.73;;;;;;;6.21;95.77;103045.59;5054912;27;97803;-26
2024/01/25 05:15:22;;;;;;;5.53;1.02;;;;;;;6.19;95.48;103054.59;5055732;27;96483;-26
2024/01/25 05:17:48;;;;;;;3.08;0.70;;;;;;;6.15;95.35;103059.13;5055839;27;96746;-29
2024/01/25 05:20:15;;;;;;;0.85;0.45;;;;;;;6.11;95.64;103054.66;5055500;27;97854;-27
2024/01/25 05:22:41;;;;;;;3.80;0.45;;;;;;;6.10;95.75;103074.38;5055578;27;99266;-27
2024/01/25 05:25:08;;;;;;;2.35;1.08;;;;;;;6.04;95.73;103067.25;5055420;27;96587;-26
2024/01/25 05:27:33;;;;;;;2.05;1.05;;;;;;;6.08;96.02;103073.53;5054173;27;96817;-26
2024/01/25 05:29:59;;;;;;;0.40;0.40;;;;;;;6.06;96.15;103069.94;5054793;27;97392;-27
2024/01/25 05:32:24;;;;;;;0.10;0.03;;;;;;;5.98;95.64;103055.63;5055368;27;97808;-27
2024/01/25 05:34:49;;;;;;;3.30;0.70;;;;;;;5.95;96.04;103054.75;5055501;27;96605;-26
2024/01/25 05:37:15;;;;;;;2.13;1.02;;;;;;;5.94;95.93;103054.78;5055525;27;96839;-26
2024/01/25 05:39:40;;;;;;;0.28;0.22;;;;;;;5.88;95.69;103052.97;5055239;27;97261;-28
2024/01/25 05:42:05;;;;;;;0.20;0.20;;;;;;;5.89;96.05;103051.19;5055150;27;97940;-26
2024/01/25 05:44:31;;;;;;;0.80;0.55;;;;;;;5.92;96.50;103067.31;5055467;27;96669;-26
2024/01/25 05:46:56;;;;;;;3.35;1.58;;;;;;;5.88;96.42;103066.41;5055833;27;96744;-28
2024/01/25 05:49:21;;;;;;;1.08;0.70;;;;;;;5.88;96.87;103062.84;5054997;27;97838;-27
2024/01/25 05:51:47;;;;;;;3.72;0.68;;;;;;;5.79;97.10;103053.03;5055203;27;97323;-27
2024/01/25 05:54:12;;;;;;;1.60;0.90;;;;;;;5.82;96.85;103057.53;5054616;27;96778;-26
2024/01/25 05:56:37;;;;;;;2.60;0.47;;;;;;;5.81;96.72;103056.59;5054524;27;96844;-26
2024/01/25 05:59:03;;;;;;;2.28;0.50;;;;;;;5.75;96.43;103052.16;5053602;27;100770;-26
2024/01/25 06:01:28;;;;;;;0.65;0.55;;;;;;;5.79;96.66;103065.59;5055362;27;96853;-27
2024/01/25 06:03:54;;;;;;;0.30;0.15;;;;;;;5.78;96.57;103078.13;5054785;27;96647;-26
2024/01/25 06:06:20;;;;;;;5.43;0.85;;;;;;;5.75;96.73;103072.78;5055294;27;96737;-26
2024/01/25 06:08:45;;;;;;;0.60;0.40;;;;;;;5.72;96.91;103075.47;5053447;27;98959;-27
2024/01/25 06:11:11;;;;;;;7.25;1.15;;;;;;;5.78;96.62;103075.44;5055150;27;97420;-27
2024/01/25 06:13:36;;;;;;;1.55;1.05;;;;;;;5.74;96.75;103069.22;5054807;27;96655;-27
2024/01/25 06:16:01;;;;;;;5.32;0.60;;;;;;;5.72;96.55;103070.09;5055247;27;96779;-27
2024/01/25 06:18:27;;;;;;;0.60;0.50;;;;;;;5.64;97.15;103070.16;5054189;27;96670;-26
2024/01/25 06:20:52;;;;;;;1.08;0.68;;;;;;;5.66;97.25;103070.16;5054578;27;99664;-26
2024/01/25 06:23:18;;;;;;;1.08;0.47;;;;;;;5.66;97.19;103072.84;5056267;27;96646;-27
2024/01/25 06:25:43;;;;;;;1.25;0.43;;;;;;;5.72;96.99;103079.09;5058784;27;96752;-27
2024/01/25 06:28:09;;;;;;;0.93;0.75;;;;;;;5.69;97.00;103075.50;5058375;27;98226;-27
2024/01/25 06:30:34;;;;;;;3.00;0.52;;;;;;;5.65;97.52;103066.56;5057872;27;99268;-27
2024/01/25 06:32:59;;;;;;;2.03;1.05;;;;;;;5.58;97.71;103050.44;5058070;27;96710;-27
2024/01/25 06:35:25;;;;;;;1.00;0.90;;;;;;;5.60;97.05;103057.63;5058895;27;96799;-27
2024/01/25 06:37:50;;;;;;;0.75;0.70;;;;;;;5.51;97.12;103050.50;5056617;27;99323;-27
2024/01/25 06:40:16;;;;;;;0.38;0.32;;;;;;;5.58;97.17;103072.88;5057888;27;99458;-26
2024/01/25 06:42:42;;;;;;;4.18;0.98;;;;;;;5.58;97.04;103078.25;5057553;27;96561;-27
2024/01/25 06:45:08;;;;;;;2.55;1.13;;;;;;;5.51;97.16;103077.38;5056984;27;96790;-27
2024/01/25 06:47:33;;;;;;;0.47;0.30;;;;;;;5.58;97.48;103078.25;5057746;27;98060;-27
2024/01/25 06:49:58;;;;;;;2.47;1.30;;;;;;;5.55;97.46;103075.56;5057787;27;97299;-26
2024/01/25 06:52:24;;;;;;;0.45;0.32;;;;;;;5.48;97.12;103060.34;5057883;27;96543;-27
2024/01/25 06:54:49;;;;;;;2.33;0.88;;;;;;;5.46;97.50;103055.00;5057997;27;96727;-27
2024/01/25 06:57:14;;;;;;;4.10;0.82;;;;;;;5.49;96.99;103060.38;5057206;27;97879;-26
2024/01/25 06:59:40;;;;;;;2.80;0.98;;;;;;;5.40;97.32;103057.72;5057882;27;99761;-26
2024/01/25 07:02:05;;;;;;;0.82;0.50;;;;;;;5.40;97.45;103062.19;5057839;27;96638;-26
2024/01/25 07:04:31;;;;;;;3.78;0.47;;;;;;;5.45;97.69;103081.88;5057805;27;96533;-28
2024/01/25 07:06:56;;;;;;;1.17;0.70;;;;;;;5.43;97.97;103079.19;5057331;27;97706;-26
2024/01/25 07:09:21;;;;;;;3.30;0.63;;;;;;;5.44;97.61;103067.56;5057524;27;98416;-27
2024/01/25 07:11:47;;;;;;;0.63;0.50;;;;;;;5.48;97.56;103082.78;5058167;27;96479;-26
2024/01/25 07:14:12;;;;;;;1.38;0.60;;;;;;;5.43;97.72;103057.69;5057942;27;96811;-27
2024/01/25 07:16:38;;;;;;;2.92;0.73;;;;;;;5.41;97.78;103064.91;5055806;27;101216;-27
2024/01/25 07:19:03;;;;;;;1.98;0.45;;;;;;;5.44;97.70;103080.13;5057465;27;97804;-27
2024/01/25 07:21:32;;;;;;;1.40;0.50;;;;;;;5.43;97.46;103083.69;5057785;27;96553;-28
2024/01/25 07:23:59;;;;;;;7.43;0.85;;;;;;;5.44;98.14;103094.44;5056601;27;96727;-26
2024/01/25 07:26:24;;;;;;;2.72;0.70;;;;;;;5.38;98.46;103083.69;5055815;27;101074;-27
2024/01/25 07:28:53;;;;;;;2.25;0.90;;;;;;;5.39;99.94;103090.00;5057367;27;97289;-27
2024/01/25 07:31:20;;;;;;;2.22;1.08;;;;;;;5.39;100.00;103088.19;5056725;27;96793;-27
2024/01/25 07:33:47;;;;;;;0.82;0.57;;;;;;;5.46;100.00;103087.28;5055905;27;96947;-27
2024/01/25 07:36:12;;;;;;;0.55;0.55;;;;;;;5.49;99.80;103078.28;5056301;27;99285;-27
2024/01/25 07:38:38;;;;;;;1.23;0.50;;;;;;;5.51;99.64;103072.00;5055551;27;100616;-27
2024/01/25 07:41:03;;;;;;;2.00;0.75;;;;;;;5.48;98.96;103066.66;5057492;27;96520;-26
2024/01/25 07:43:29;;;;;;;1.70;1.10;;;;;;;5.52;98.60;103076.47;5057204;27;96895;-26
2024/01/25 07:45:54;;;;;;;0.88;0.57;;;;;;;5.56;98.75;103088.13;5057116;27;97486;-26
2024/01/25 07:48:19;;;;;;;0.30;0.22;;;;;;;5.53;98.47;103090.81;5057379;27;97744;-27
2024/01/25 07:50:45;;;;;;;0.63;0.32;;;;;;;5.52;98.29;103100.66;5057174;27;96662;-27
2024/01/25 07:53:12;;;;;;;0.45;0.40;;;;;;;5.54;98.33;103097.97;5057129;27;96815;-26
2024/01/25 07:55:37;;;;;;;0.93;0.57;;;;;;;5.54;98.46;103095.28;5054772;27;100898;-26
2024/01/25 07:58:02;;;;;;;4.43;1.02;;;;;;;5.48;98.96;103050.53;5055807;27;97336;-27
2024/01/25 08:00:28;;;;;;;0.47;0.35;;;;;;;5.54;98.90;103044.22;5056821;27;96586;-27
2024/01/25 08:02:53;;;;;;;0.40;0.40;;;;;;;5.59;98.90;103071.97;5057226;27;96774;-27
2024/01/25 08:05:19;;;;;;;0.65;0.50;;;;;;;5.59;98.73;103069.28;5056697;27;97340;-27
2024/01/25 08:07:45;;;;;;;0.47;0.22;;;;;;;5.58;98.53;103066.59;5056782;27;97735;-27
2024/01/25 08:10:10;;;;;;;0.00;0.00;;;;;;;5.54;99.62;103058.53;5055322;27;96653;-26
2024/01/25 08:12:35;;;;;;;1.77;0.85;;;;;;;5.57;99.69;103075.56;5057369;27;96864;-26
2024/01/25 08:15:01;;;;;;;1.08;0.82;;;;;;;5.59;100.00;103080.03;5056121;27;99462;-28
2024/01/25 08:17:26;;;;;;;1.38;0.63;;;;;;;5.62;100.00;103071.94;5056703;27;97371;-27
2024/01/25 08:19:52;;;;;;;0.98;0.57;;;;;;;5.67;99.75;103066.53;5056239;27;96641;-27
2024/01/25 08:22:17;;;;;;;30.17;1.15;;;;;;;5.68;99.79;103060.28;5056881;27;96789;-26
2024/01/25 08:24:43;;;;;;;3.03;0.77;;;;;;;5.73;99.56;103075.47;5056199;27;99447;-28
2024/01/25 08:27:08;;;;;;;2.10;0.82;;;;;;;5.70;99.37;103077.31;5054910;27;98977;-27
2024/01/25 08:29:34;;;;;;;0.50;0.45;;;;;;;5.73;99.12;103082.66;5056257;27;96752;-26
2024/01/25 08:31:59;;;;;;;0.47;0.43;;;;;;;5.77;98.88;103083.50;5056768;27;96774;-26
2024/01/25 08:34:24;;;;;;;0.22;0.13;;;;;;;5.74;99.53;103079.97;5056268;27;97358;-26
2024/01/25 08:36:50;;;;;;;0.65;0.55;;;;;;;5.79;99.24;103084.41;5056346;27;99239;-27
2024/01/25 08:39:15;;;;;;;0.68;0.52;;;;;;;5.83;98.61;103080.81;5056211;27;96476;-27
2024/01/25 08:41:42;;;;;;;1.17;0.77;;;;;;;5.86;98.61;103084.34;5056289;27;96836;-27
2024/01/25 08:44:07;;;;;;;5.93;0.93;;;;;;;5.89;98.83;103083.47;5054018;27;101379;-27
2024/01/25 08:46:33;;;;;;;0.52;0.40;;;;;;;5.86;98.95;103073.59;5055029;27;97802;-27
2024/01/25 08:48:58;;;;;;;2.88;0.50;;;;;;;5.87;98.69;103069.13;5056075;27;96672;-26
2024/01/25 08:51:23;;;;;;;1.45;1.02;;;;;;;5.89;99.22;103078.97;5056258;27;96755;-27
2024/01/25 08:53:51;;;;;;;3.13;0.88;;;;;;;5.95;98.65;103091.53;5055541;27;99825;-26
2024/01/25 08:56:16;;;;;;;0.60;0.52;;;;;;;5.98;98.28;103086.13;5055504;27;99283;-26
2024/01/25 08:58:42;;;;;;;2.08;1.13;;;;;;;5.89;98.99;103076.28;5055585;27;96797;-27
2024/01/25 09:01:07;;;;;;;1.17;0.30;;;;;;;5.94;98.95;103073.59;5056273;27;96809;-26
2024/01/25 09:03:33;;;;;;;2.47;1.48;;;;;;;6.00;98.86;103064.59;5055457;27;99353;-27
2024/01/25 09:05:58;;;;;;;1.65;0.98;;;;;;;6.11;98.49;103078.88;5055877;27;97766;-26
2024/01/25 09:08:23;;;;;;;1.90;0.98;;;;;;;6.08;98.44;103065.44;5055192;27;97551;-27
2024/01/25 09:10:49;;;;;;;2.53;1.33;;;;;;;6.16;98.28;103068.97;5054360;27;96925;-27
2024/01/25 09:13:15;;;;;;;1.80;1.10;;;;;;;6.13;98.32;103063.63;5055495;27;97511;-27
2024/01/25 09:15:40;;;;;;;3.15;0.90;;;;;;;6.11;99.69;103060.03;5053933;27;99238;-27
2024/01/25 09:18:06;;;;;;;2.92;1.27;;;;;;;6.10;99.60;103061.84;5055642;27;96467;-27
2024/01/25 09:20:31;;;;;;;5.55;1.10;;;;;;;6.08;99.72;103060.97;5055682;27;96852;-27
2024/01/25 09:22:56;;;;;;;3.67;1.13;;;;;;;6.09;100.00;103061.84;5055246;27;98927;-27
2024/01/25 09:25:23;;;;;;;0.90;0.60;;;;;;;6.09;100.00;103075.28;5056140;27;97521;-28
2024/01/25 09:27:48;;;;;;;7.30;2.00;;;;;;;6.06;100.00;103067.25;5055695;27;96651;-29
2024/01/25 09:30:14;;;;;;;1.60;1.17;;;;;;;6.05;100.00;103055.56;5053003;27;96952;-28
2024/01/25 09:32:39;;;;;;;1.27;0.50;;;;;;;6.10;100.00;103067.22;5052239;27;99888;-30
2024/01/25 09:35:05;;;;;;;1.05;0.65;;;;;;;6.10;100.00;103061.84;5052854;27;97770;-28
2024/01/25 09:37:30;;;;;;;3.70;1.10;;;;;;;6.10;100.00;103050.16;5051534;27;97063;-33
2024/01/25 09:39:58;;;;;;;5.30;1.35;;;;;;;6.15;100.00;103054.63;5052976;27;97385;-30
2024/01/25 09:42:24;;;;;;;3.63;0.80;;;;;;;6.18;100.00;103061.78;5051416;27;98914;-32
2024/01/25 09:44:52;;;;;;;1.30;0.43;;;;;;;6.21;100.00;103059.06;5052974;27;101271;-27
2024/01/25 09:47:19;;;;;;;2.47;1.10;;;;;;;6.22;100.00;103051.88;5053978;27;96783;-27
2024/01/25 09:49:44;;;;;;;7.57;1.40;;;;;;;6.25;100.00;103059.94;5054082;27;96847;-27
2024/01/25 09:52:12;;;;;;;5.35;1.17;;;;;;;6.25;100.00;103055.44;5054925;27;97918;-27
2024/01/25 09:54:38;;;;;;;3.30;0.95;;;;;;;6.30;100.00;103047.34;5053343;27;100849;-27
2024/01/25 09:57:13;;;;;;;0.60;0.38;;;;;;;6.25;100.00;103036.59;5054485;27;96673;-27
2024/01/25 09:59:39;;;;;;;2.58;1.08;;;;;;;6.29;100.00;103046.44;5053305;27;96742;-27
2024/01/25 10:02:04;;;;;;;2.65;1.20;;;;;;;6.26;100.00;103033.00;5053433;27;98915;-27
2024/01/25 10:04:29;;;;;;;1.92;0.82;;;;;;;6.38;100.00;103037.38;5055220;27;96935;-27
2024/01/25 10:06:56;;;;;;;1.60;0.52;;;;;;;6.42;100.00;103046.34;5055244;27;96574;-27
2024/01/25 10:09:22;;;;;;;3.08;1.40;;;;;;;6.36;100.00;103023.03;5053463;27;96798;-27
2024/01/25 10:11:48;;;;;;;1.27;0.80;;;;;;;6.40;100.00;103030.19;5054374;27;99565;-28
2024/01/25 10:14:13;;;;;;;0.95;0.55;;;;;;;6.44;100.00;103028.38;5055144;27;97779;-27
2024/01/25 10:16:39;;;;;;;0.93;0.52;;;;;;;6.48;100.00;103033.69;5055006;27;96674;-27
2024/01/25 10:19:07;;;;;;;14.10;0.90;;;;;;;6.50;100.00;103034.56;5054728;27;96549;-27
2024/01/25 10:21:35;;;;;;;3.33;1.20;;;;;;;6.47;100.00;103034.63;5052574;27;99069;-27
2024/01/25 10:24:00;;;;;;;4.32;0.52;;;;;;;6.50;100.00;103039.97;5053117;27;101187;-27
2024/01/25 10:26:28;;;;;;;3.25;0.93;;;;;;;6.50;100.00;103045.34;5054973;27;96678;-27
2024/01/25 10:28:54;;;;;;;0.93;0.80;;;;;;;6.47;100.00;103034.63;5053304;27;96795;-27
2024/01/25 10:31:24;;;;;;;0.60;0.47;;;;;;;6.49;100.00;103037.31;5053129;27;101102;-27
2024/01/25 10:33:53;;;;;;;6.75;0.93;;;;;;;6.58;100.00;103053.38;5053019;27;100993;-27
2024/01/25 10:36:20;;;;;;;1.15;1.05;;;;;;;6.54;100.00;103043.53;5054634;27;96498;-27
2024/01/25 10:38:48;;;;;;;3.05;1.45;;;;;;;6.60;100.00;103048.84;5054941;27;96904;-27
2024/01/25 10:41:15;;;;;;;4.00;0.70;;;;;;;6.69;100.00;103055.94;5054281;27;97418;-27
2024/01/25 10:43:40;;;;;;;2.58;1.40;;;;;;;6.63;100.00;103043.44;5052202;27;101612;-27
2024/01/25 10:46:07;;;;;;;3.75;1.08;;;;;;;6.68;100.00;103047.00;5053948;27;96502;-28
2024/01/25 10:48:32;;;;;;;1.17;0.43;;;;;;;6.71;100.00;103035.28;5054551;27;96696;-28
2024/01/25 10:51:02;;;;;;;2.08;0.57;;;;;;;6.67;100.00;103025.44;5054000;27;99585;-27
2024/01/25 10:53:31;;;;;;;2.05;1.08;;;;;;;6.79;100.00;103041.47;5052547;27;101018;-27
2024/01/25 10:55:57;;;;;;;0.60;0.60;;;;;;;6.80;100.00;103038.78;5052399;27;96862;-27
2024/01/25 10:58:22;;;;;;;7.82;1.75;;;;;;;6.78;100.00;103023.53;5052303;27;96935;-28
2024/01/25 11:00:58;;;;;;;1.38;0.63;;;;;;;6.81;100.00;102996.56;5053941;27;98951;-28
2024/01/25 11:03:28;;;;;;;6.93;0.63;;;;;;;6.80;100.00;102992.09;5054398;27;97788;-28
2024/01/25 11:06:10;;;;;;;1.48;0.75;;;;;;;6.87;100.00;102996.50;5052804;27;96670;-27
2024/01/25 11:08:38;;;;;;;;;;;;;;;6.94;100.00;102991.94;5053497;27;96877;-29
2024/01/25 11:11:06;;;;;;;0.70;0.45;;;;;;;6.97;100.00;102991.91;5054157;27;100920;-27
2024/01/25 11:13:32;;;;;;;2.20;1.15;;;;;;;6.97;100.00;102991.91;5056001;27;100793;-28
2024/01/25 11:15:57;;;;;;;8.40;1.30;;;;;;;7.01;100.00;102977.50;5056291;27;96725;-27
2024/01/25 11:18:25;;;;;;;0.80;0.75;;;;;;;6.99;100.00;102990.97;5058038;27;96695;-28
2024/01/25 11:20:51;;;;;;;1.13;0.77;;;;;;;7.04;100.00;103001.69;5057082;27;99161;-27
2024/01/25 11:23:16;;;;;;;2.78;1.10;;;;;;;7.05;100.00;102994.50;5057700;27;97079;-28
2024/01/25 11:25:48;;;;;;;4.30;1.50;;;;;;;7.09;100.00;102986.34;5057351;27;96614;-27